To NAV CANADA Home Page Login to a new session Search on AWWS site Disclaimer Vers la page française équivalente Tips FAQ What's new on the site To the Forecasts and Observations / NOTAM section To "File a Flight Plan" website Publications and other links Update of the User's profile FIC Telephone Numbers My Weather Data Folder Route Weather Data Regional Weather Data Local Weather Data To the Forecasts and Observations / NOTAM section
Request Generated 01/21/2018 at 20:15:43 UTC . Weather information available at that time is displayed.


Go to a specific product

Save this request - Inactive

METAR/TAF

If you find any discrepancies between the coded METAR/TAF and the plain language METAR/TAF please use the coded METAR/TAF. LWIS bulletins are not decoded in plain language.

OTTAWA/GATINEAU/QC    

METAR CYND 212000Z 08005KT 15SM BKN023 OVC140 00/M06 A3013 RMK SC7AC1 SLP208=
METAR
LOCATION
CYND - OTTAWA/GATINEAU/QC
DATE - TIME
21 JANUARY 2018 - 2000 UTC
WIND
80 TRUE @ 5  KNOTS
VISIBILITY
15 STAT.  MILES
RUNWAY VISUAL RANGE
WEATHER
CLOUDINESS
BROKEN CLOUDS (5/8 - 7/8) 2300  FT
OVERCAST 14000  FT
TEMP / DEWPOINT
0 C / -6 C
ALTIMETER
30.13 IN HG
RECENT WEATHER
WIND SHEAR

METAR CYND 211900Z 12003KT 080V140 15SM OVC022 00/M06 A3011 RMK SC8 SLP202=
METAR
LOCATION
CYND - OTTAWA/GATINEAU/QC
DATE - TIME
21 JANUARY 2018 - 1900 UTC
WIND
120 TRUE @ 3  KNOTS
VARIATION
80 <-> 140  DEG
VISIBILITY
15 STAT.  MILES
RUNWAY VISUAL RANGE
WEATHER
CLOUDINESS
OVERCAST 2200  FT
TEMP / DEWPOINT
0 C / -6 C
ALTIMETER
30.11 IN HG
RECENT WEATHER
WIND SHEAR

METAR CYND 211800Z 14003KT 15SM OVC022 00/M07 A3012 RMK SC8 SLP204=
METAR
LOCATION
CYND - OTTAWA/GATINEAU/QC
DATE - TIME
21 JANUARY 2018 - 1800 UTC
WIND
140 TRUE @ 3  KNOTS
VISIBILITY
15 STAT.  MILES
RUNWAY VISUAL RANGE
WEATHER
CLOUDINESS
OVERCAST 2200  FT
TEMP / DEWPOINT
0 C / -7 C
ALTIMETER
30.12 IN HG
RECENT WEATHER
WIND SHEAR

TAF CYND 211738Z 2118/2202 VRB03KT P6SM OVC025 TEMPO 2118/2122 5SM -SN OVC020 FM212200 08005KT P6SM -SN OVC020 TEMPO 2122/2124 3SM -SN OVC012 PROB30 2122/2124 21/2SM -FZDZ BR OVC008 FM220000 09005KT 5SM -SN OVC020 TEMPO 2200/2202 11/2SM -SN OVC010 RMK NXT FCST BY 220000Z=
TAF
LOCATION

CYND - OTTAWA/GATINEAU/QC
VALIDITY [UTC]
21 JAN - 1738 to
22 JAN - 0200
 
TIMES
[UTC]
WIND
[DEGREES TRUE]
VISIBILITY
[STAT. MILES]
WEATHER
CLOUDINESS
[FEET AGL]
 
21 JAN - 1800 to
21 JAN - 2200
VARIABLE @ 3 KNOTS
6+
NIL
2500 OVERCAST
TEMPORARY CHANGES
21 JAN - 1800 to
21 JAN - 2200
 
5
LIGHT SNOW
2000 OVERCAST
 
21 JAN - 2200 to
22 JAN - 0000
80 @ 5 KNOTS
6+
LIGHT SNOW
2000 OVERCAST
TEMPORARY CHANGES
21 JAN - 2200 to
22 JAN - 0000
 
3
LIGHT SNOW
1200 OVERCAST
30% PROBABILITY
21 JAN - 2200 to
22 JAN - 0000
 
2 1/2
LIGHT FREEZING DRIZZLE
MIST
800 OVERCAST
 
22 JAN - 0000 to
22 JAN - 0200
90 @ 5 KNOTS
5
LIGHT SNOW
2000 OVERCAST
TEMPORARY CHANGES
22 JAN - 0000 to
22 JAN - 0200
 
1 1/2
LIGHT SNOW
1000 OVERCAST
REMARKS
THE NEXT FORECAST WILL BE ISSUED BY 0000 UTC ON DAY 22


OTTAWA/MACDONALD-CARTIER INTL/ON    

METAR CYOW 212000Z 12003KT 15SM SCT020 OVC090 01/M05 A3012 RMK SC3AS5 SLP206=
METAR
LOCATION
CYOW - OTTAWA/MACDONALD-CARTIER INTL/ON
DATE - TIME
21 JANUARY 2018 - 2000 UTC
WIND
120 TRUE @ 3  KNOTS
VISIBILITY
15 STAT.  MILES
RUNWAY VISUAL RANGE
WEATHER
CLOUDINESS
SCATTERED CLOUDS (3/8 - 4/8) 2000  FT
OVERCAST 9000  FT
TEMP / DEWPOINT
1 C / -5 C
ALTIMETER
30.12 IN HG
RECENT WEATHER
WIND SHEAR

METAR CYOW 211900Z 06004KT 15SM BKN018 OVC140 01/M05 A3010 RMK SC6AC2 SLP201=
METAR
LOCATION
CYOW - OTTAWA/MACDONALD-CARTIER INTL/ON
DATE - TIME
21 JANUARY 2018 - 1900 UTC
WIND
60 TRUE @ 4  KNOTS
VISIBILITY
15 STAT.  MILES
RUNWAY VISUAL RANGE
WEATHER
CLOUDINESS
BROKEN CLOUDS (5/8 - 7/8) 1800  FT
OVERCAST 14000  FT
TEMP / DEWPOINT
1 C / -5 C
ALTIMETER
30.10 IN HG
RECENT WEATHER
WIND SHEAR

METAR CYOW 211800Z 10005KT 040V120 15SM SCT017 BKN140 01/M06 A3011 RMK SC3AC4 SLP202=
METAR
LOCATION
CYOW - OTTAWA/MACDONALD-CARTIER INTL/ON
DATE - TIME
21 JANUARY 2018 - 1800 UTC
WIND
100 TRUE @ 5  KNOTS
VARIATION
40 <-> 120  DEG
VISIBILITY
15 STAT.  MILES
RUNWAY VISUAL RANGE
WEATHER
CLOUDINESS
SCATTERED CLOUDS (3/8 - 4/8) 1700  FT
BROKEN CLOUDS (5/8 - 7/8) 14000  FT
TEMP / DEWPOINT
1 C / -6 C
ALTIMETER
30.11 IN HG
RECENT WEATHER
WIND SHEAR

TAF CYOW 211738Z 2118/2218 07005KT P6SM BKN025 OVC120 TEMPO 2118/2120 BKN020 OVC120 FM212000 09005KT P6SM OVC025 TEMPO 2121/2124 3SM -SN OVC015 FM220000 08005KT 3SM -SN OVC012 TEMPO 2200/2210 1SM -SN BR OVC008 PROB30 2200/2203 2SM -FZDZ BR OVC010 FM221000 05010G20KT 6SM -SN OVC020 TEMPO 2210/2218 3SM -SN OVC012 RMK NXT FCST BY 212100Z=
TAF

21 JAN 2018 - 1738 UTC
LOCATION

CYOW - OTTAWA/MACDONALD-CARTIER INTL/ON
VALIDITY [UTC]
21 JAN - 1738 to
22 JAN - 1800
 
TIMES
[UTC]
WIND
[DEGREES TRUE]
VISIBILITY
[STAT. MILES]
WEATHER
CLOUDINESS
[FEET AGL]
 
21 JAN - 1800 to
21 JAN - 2000
70 @ 5 KNOTS
6+
NIL
2500 BROKEN
12000 OVERCAST
TEMPORARY CHANGES
21 JAN - 1800 to
21 JAN - 2000
 
 
 
2000 BROKEN
12000 OVERCAST
 
21 JAN - 2000 to
22 JAN - 0000
90 @ 5 KNOTS
6+
NIL
2500 OVERCAST
TEMPORARY CHANGES
21 JAN - 2100 to
22 JAN - 0000
 
3
LIGHT SNOW
1500 OVERCAST
 
22 JAN - 0000 to
22 JAN - 1000
80 @ 5 KNOTS
3
LIGHT SNOW
1200 OVERCAST
TEMPORARY CHANGES
22 JAN - 0000 to
22 JAN - 1000
 
1
LIGHT SNOW
MIST
800 OVERCAST
30% PROBABILITY
22 JAN - 0000 to
22 JAN - 0300
 
2
LIGHT FREEZING DRIZZLE
MIST
1000 OVERCAST
 
22 JAN - 1000 to
22 JAN - 1800
50 @ 10 KNOTS
GUSTS 20 KNOTS
6
LIGHT SNOW
2000 OVERCAST
TEMPORARY CHANGES
22 JAN - 1000 to
22 JAN - 1800
 
3
LIGHT SNOW
1200 OVERCAST
REMARKS
THE NEXT FORECAST WILL BE ISSUED BY 2100 UTC ON DAY 21




GRAPHICAL FA CLOUDS & WEATHER FORECASTS
To the Product Selector
Graphical FA gfacn33      

GRAPHICAL FA ICING, TURBULENCE & FREEZING LEVEL FORECASTS
To the Product Selector
Graphical FA gfacn33      

FDTEXT Low Level FD. Temperatures are not forecast for the 3,000-foot level.
To the Product Selector
STN YOW - OTTAWA. ONT for use 3000 6000 9000 12000 18000
FDCN01 CWAO FCST BASED ON 211200 DATA VALID 211800 17-21 2509 2822-06 2837-10 2864-12 2880-21
FDCN02 CWAO FCST BASED ON 211200 DATA VALID 220000 21-06 2610 2718-05 2730-10 2748-12 2880-20
FDCN03 CWAO FCST BASED ON 211200 DATA VALID 221200 06-17 1011 2505-05 2721-09 2848-10 2772-19



Your time UTC time
Weather data provided by Environment Canada and NAV CANADA